Time;durP1;ratioP1;P1;durP2;ratioP2;P2;SDS_P1;SDS_P2;PMS_P1;PMS_P2;Temp;Humidity;BMP_temperature;BMP_pressure;BME280_temperature;BME280_humidity;BME280_pressure;Samples;Min_cycle;Max_cycle;Signal;HPM_P1;HPM_P2
2022/12/01 00:02:15;;;;;;;80.68;38.05;;;6.00;99.90;;;;;;5040113;28;20045;-71
2022/12/01 00:04:41;;;;;;;78.85;36.28;;;6.00;99.90;;;;;;5037673;28;20110;-71
2022/12/01 00:07:07;;;;;;;81.90;35.83;;;6.00;99.90;;;;;;5042484;28;20114;-71
2022/12/01 00:12:16;;;;;;;86.47;37.20;;;6.00;99.90;;;;;;5041852;28;20037;-71
2022/12/01 00:14:42;;;;;;;86.80;39.17;;;6.00;99.90;;;;;;5024999;28;20523;-71
2022/12/01 00:17:08;;;;;;;85.43;37.28;;;5.80;99.90;;;;;;5026101;28;20044;-71
2022/12/01 00:19:33;;;;;;;90.22;39.38;;;5.80;99.90;;;;;;5039681;28;20056;-71
2022/12/01 00:21:59;;;;;;;87.28;39.55;;;5.80;99.90;;;;;;5022651;28;20041;-71
2022/12/01 00:24:24;;;;;;;84.10;39.05;;;5.90;99.90;;;;;;5043215;28;20090;-71
2022/12/01 00:26:50;;;;;;;95.03;40.33;;;5.90;99.90;;;;;;5044405;28;20067;-71
2022/12/01 00:29:16;;;;;;;84.43;39.30;;;5.80;99.90;;;;;;5042693;28;20037;-71
2022/12/01 00:31:41;;;;;;;90.93;40.70;;;5.80;99.90;;;;;;5010298;28;20307;-71
2022/12/01 00:34:20;;;;;;;92.18;40.92;;;5.80;99.90;;;;;;5041417;28;20037;-71
2022/12/01 00:36:46;;;;;;;92.45;40.60;;;5.90;99.90;;;;;;5041054;28;20124;-71
2022/12/01 00:39:12;;;;;;;89.80;40.17;;;6.00;99.90;;;;;;5041639;28;20057;-72
2022/12/01 00:41:37;;;;;;;89.75;40.28;;;5.80;99.90;;;;;;5022245;28;20053;-71
2022/12/01 00:44:03;;;;;;;90.60;39.78;;;5.90;99.90;;;;;;5043736;28;20067;-71
2022/12/01 00:46:29;;;;;;;93.55;40.90;;;5.90;99.90;;;;;;5043624;28;20392;-71
2022/12/01 00:48:54;;;;;;;99.18;43.22;;;5.80;99.90;;;;;;5023206;28;20056;-71
2022/12/01 00:51:20;;;;;;;88.70;40.85;;;5.90;99.90;;;;;;5037025;28;20464;-71
2022/12/01 00:53:45;;;;;;;93.53;40.53;;;5.90;99.90;;;;;;5022641;28;20065;-71
2022/12/01 00:56:11;;;;;;;84.30;40.03;;;5.80;99.90;;;;;;5022996;28;20079;-71
2022/12/01 00:58:37;;;;;;;97.57;43.08;;;5.80;99.90;;;;;;5022265;28;20071;-70
2022/12/01 01:01:03;;;;;;;91.95;39.70;;;5.80;99.90;;;;;;5042432;28;20447;-71
2022/12/01 01:03:29;;;;;;;97.25;42.17;;;5.90;99.90;;;;;;5017580;28;20069;-71
2022/12/01 01:05:55;;;;;;;86.57;39.03;;;5.90;99.90;;;;;;5023843;28;20052;-71
2022/12/01 01:08:21;;;;;;;85.82;39.20;;;5.80;99.90;;;;;;5023152;28;20434;-71
2022/12/01 01:10:47;;;;;;;91.75;40.58;;;5.90;99.90;;;;;;5041974;28;20056;-71
2022/12/01 01:13:14;;;;;;;88.57;40.30;;;5.80;99.90;;;;;;5039665;28;20561;-71
2022/12/01 01:15:40;;;;;;;96.50;41.38;;;5.90;99.90;;;;;;5039236;28;20044;-71
2022/12/01 01:18:05;;;;;;;107.10;43.85;;;5.90;99.90;;;;;;5038471;28;20444;-71
2022/12/01 01:20:32;;;;;;;93.30;41.20;;;5.90;99.90;;;;;;5024072;28;20132;-71
2022/12/01 01:22:58;;;;;;;91.47;39.47;;;5.80;99.90;;;;;;5044232;28;20059;-71
2022/12/01 01:25:24;;;;;;;102.25;41.70;;;5.80;99.90;;;;;;5026468;28;20407;-71
2022/12/01 01:27:50;;;;;;;96.05;41.92;;;5.90;99.90;;;;;;5038228;28;20033;-71
2022/12/01 01:30:16;;;;;;;105.70;43.88;;;5.90;99.90;;;;;;5024371;28;20123;-71
2022/12/01 01:32:42;;;;;;;91.45;43.33;;;5.80;99.90;;;;;;5040988;28;20033;-71
2022/12/01 01:35:08;;;;;;;101.40;42.13;;;5.80;99.90;;;;;;5019169;28;22824;-71
2022/12/01 01:37:34;;;;;;;102.07;42.88;;;5.90;99.90;;;;;;5041617;28;20284;-71
2022/12/01 01:39:59;;;;;;;102.20;42.88;;;5.70;99.90;;;;;;5042707;28;20067;-70
2022/12/01 01:42:25;;;;;;;97.53;40.20;;;5.80;99.90;;;;;;5039515;28;20122;-71
2022/12/01 01:44:54;;;;;;;100.72;42.42;;;5.80;99.90;;;;;;5041904;28;20224;-71
2022/12/01 01:47:26;;;;;;;95.25;39.53;;;5.60;99.90;;;;;;5036698;28;20477;-71
2022/12/01 01:49:54;;;;;;;75.80;33.30;;;5.70;99.90;;;;;;5039407;28;20094;-71
2022/12/01 01:52:21;;;;;;;74.60;32.72;;;5.60;99.90;;;;;;5019305;28;20044;-71
2022/12/01 01:54:50;;;;;;;78.20;34.58;;;5.50;99.90;;;;;;5043525;28;20060;-71
2022/12/01 01:57:21;;;;;;;79.22;34.15;;;5.40;99.90;;;;;;5013450;28;20263;-71
2022/12/01 01:59:51;;;;;;;82.22;35.25;;;5.50;99.90;;;;;;5020810;28;20052;-71
2022/12/01 02:02:16;;;;;;;84.82;35.92;;;5.40;99.90;;;;;;5038567;28;20475;-71
2022/12/01 02:04:48;;;;;;;85.18;37.20;;;5.30;99.90;;;;;;5039416;28;20060;-71
2022/12/01 02:07:17;;;;;;;93.80;38.35;;;5.40;99.90;;;;;;5039259;28;20419;-71
2022/12/01 02:09:43;;;;;;;90.15;37.88;;;5.40;99.90;;;;;;5040376;28;20496;-71
2022/12/01 02:12:11;;;;;;;96.28;40.10;;;5.40;99.90;;;;;;5037572;28;20135;-71
2022/12/01 02:15:01;;;;;;;88.80;37.90;;;5.40;99.90;;;;;;5041722;28;20040;-70
2022/12/01 02:17:48;;;;;;;89.72;37.55;;;5.40;99.90;;;;;;5037882;28;20048;-71
2022/12/01 02:20:35;;;;;;;100.15;38.83;;;5.40;99.90;;;;;;5018839;28;20140;-71
2022/12/01 02:23:32;;;;;;;105.90;42.03;;;5.50;99.90;;;;;;5036107;28;20130;-72
2022/12/01 02:26:29;;;;;;;95.95;40.70;;;5.40;99.90;;;;;;5039860;28;20450;-71
2022/12/01 02:29:36;;;;;;;92.35;39.58;;;5.40;99.90;;;;;;5038786;28;20044;-71
2022/12/01 02:32:27;;;;;;;99.50;40.50;;;5.50;99.90;;;;;;5025047;28;20438;-70
2022/12/01 02:35:18;;;;;;;90.20;39.42;;;5.50;99.90;;;;;;5041768;28;20041;-71
2022/12/01 02:38:07;;;;;;;98.72;40.25;;;5.40;99.90;;;;;;5035764;28;20135;-71
2022/12/01 02:40:36;;;;;;;95.97;41.97;;;5.50;99.90;;;;;;5039984;28;20041;-71
2022/12/01 02:43:20;;;;;;;92.35;39.17;;;5.50;99.90;;;;;;5036686;28;20110;-70
2022/12/01 02:46:13;;;;;;;95.03;39.75;;;5.50;99.90;;;;;;5021129;28;20793;-71
2022/12/01 02:48:41;;;;;;;101.50;40.60;;;5.40;99.90;;;;;;5042307;28;20052;-72
2022/12/01 02:51:14;;;;;;;94.45;39.13;;;5.50;99.90;;;;;;5048658;28;20132;-70
2022/12/01 02:53:40;;;;;;;104.05;40.05;;;5.50;99.90;;;;;;5033160;28;20037;-71
2022/12/01 02:56:10;;;;;;;95.70;39.55;;;5.40;99.90;;;;;;5052633;28;20052;-71
2022/12/01 02:58:35;;;;;;;101.68;42.35;;;5.50;99.90;;;;;;5030238;28;20103;-71
2022/12/01 03:01:07;;;;;;;102.35;40.70;;;5.40;99.90;;;;;;5023353;28;20037;-71
2022/12/01 03:03:52;;;;;;;93.60;38.22;;;5.50;99.90;;;;;;5037347;28;20091;-70
2022/12/01 03:06:56;;;;;;;90.20;39.35;;;5.40;99.90;;;;;;5039917;28;20060;-71
2022/12/01 03:09:32;;;;;;;;;;;5.50;99.90;;;;;;4993322;28;20561;-71
2022/12/01 03:12:16;;;;;;;94.57;36.95;;;5.50;99.90;;;;;;5021145;28;20001;-71
2022/12/01 03:14:52;;;;;;;93.60;36.25;;;5.50;99.90;;;;;;5037258;28;20119;-71
2022/12/01 03:17:27;;;;;;;95.05;39.42;;;5.50;99.90;;;;;;5021167;28;20041;-71
2022/12/01 03:19:59;;;;;;;96.80;39.15;;;5.50;99.90;;;;;;5024097;28;20495;-71
2022/12/01 03:22:32;;;;;;;94.45;37.58;;;5.50;99.90;;;;;;5025214;28;20041;-71
2022/12/01 03:25:02;;;;;;;90.53;36.47;;;5.60;99.90;;;;;;5021691;28;20070;-70
2022/12/01 03:27:33;;;;;;;90.15;35.38;;;5.60;99.90;;;;;;5018432;28;20049;-70
2022/12/01 03:30:01;;;;;;;97.68;37.28;;;5.50;99.90;;;;;;5020675;28;20063;-70
2022/12/01 03:32:30;;;;;;;98.22;38.38;;;5.50;99.90;;;;;;5042965;28;20128;-70
2022/12/01 03:35:03;;;;;;;95.78;36.88;;;5.50;99.90;;;;;;5018217;28;20155;-70
2022/12/01 03:37:36;;;;;;;88.38;36.40;;;5.40;99.90;;;;;;5042347;28;20175;-70
2022/12/01 03:40:06;;;;;;;98.72;40.40;;;5.40;99.90;;;;;;5038152;28;20041;-71
2022/12/01 03:42:37;;;;;;;87.00;37.58;;;5.50;99.90;;;;;;5039834;28;20211;-70
2022/12/01 03:45:10;;;;;;;101.70;38.13;;;5.40;99.90;;;;;;5038764;28;20076;-70
2022/12/01 03:47:38;;;;;;;90.88;37.80;;;5.50;99.90;;;;;;5040755;28;20124;-70
2022/12/01 03:50:06;;;;;;;100.05;37.95;;;5.50;99.90;;;;;;5039722;28;20139;-70
2022/12/01 03:53:18;;;;;;;91.75;37.75;;;5.50;99.90;;;;;;5033813;28;20164;-70
2022/12/01 03:55:50;;;;;;;80.13;34.30;;;5.50;99.90;;;;;;4943178;28;20050;-70
2022/12/01 03:58:34;;;;;;;86.88;35.88;;;5.50;99.90;;;;;;5014254;28;21074;-70
2022/12/01 04:01:03;;;;;;;;;;;5.40;99.90;;;;;;5019133;28;20044;-70
2022/12/01 04:03:28;;;;;;;79.30;34.60;;;5.50;99.90;;;;;;5036079;28;19929;-71
2022/12/01 04:05:54;;;;;;;81.65;34.35;;;5.40;99.90;;;;;;5039714;28;20488;-70
2022/12/01 04:08:20;;;;;;;96.95;38.50;;;5.50;99.90;;;;;;5043751;28;20060;-71
2022/12/01 04:10:46;;;;;;;79.85;36.17;;;5.40;99.90;;;;;;5024383;28;20289;-70
2022/12/01 04:13:21;;;;;;;89.22;36.60;;;5.50;99.90;;;;;;5026820;28;20048;-71
2022/12/01 04:15:48;;;;;;;98.40;37.42;;;5.50;99.90;;;;;;5040403;28;20099;-70
2022/12/01 04:18:13;;;;;;;101.32;37.70;;;5.50;99.90;;;;;;5039561;28;20051;-70
2022/12/01 04:20:39;;;;;;;100.63;38.67;;;5.50;99.90;;;;;;5044870;28;20061;-70
2022/12/01 04:23:04;;;;;;;98.13;36.40;;;5.40;99.90;;;;;;5041880;28;20147;-70
2022/12/01 04:25:30;;;;;;;90.35;34.90;;;5.40;99.90;;;;;;5044506;28;20041;-70
2022/12/01 04:27:56;;;;;;;82.07;34.40;;;5.40;99.90;;;;;;5026058;28;20551;-71
2022/12/01 04:30:22;;;;;;;97.03;35.53;;;5.50;99.90;;;;;;5025281;28;20045;-70
2022/12/01 04:32:47;;;;;;;90.80;36.17;;;5.40;99.90;;;;;;5025796;28;20048;-70
2022/12/01 04:35:13;;;;;;;89.05;34.83;;;5.40;99.90;;;;;;5040751;28;20057;-71
2022/12/01 04:37:39;;;;;;;97.65;38.65;;;5.50;99.90;;;;;;5021907;28;20041;-70
2022/12/01 04:40:05;;;;;;;106.72;40.00;;;5.50;99.90;;;;;;5044764;28;20036;-71
2022/12/01 04:42:31;;;;;;;102.40;39.78;;;5.60;99.90;;;;;;5038259;28;20192;-69
2022/12/01 04:44:57;;;;;;;111.93;41.47;;;5.40;99.90;;;;;;5041921;28;20511;-70
2022/12/01 04:47:22;;;;;;;105.50;42.15;;;5.50;99.90;;;;;;5026818;28;20041;-70
2022/12/01 04:49:48;;;;;;;117.22;44.70;;;5.60;99.90;;;;;;5039872;28;20049;-70
2022/12/01 04:52:14;;;;;;;124.78;46.03;;;5.60;99.90;;;;;;5023942;28;20064;-70
2022/12/01 04:54:40;;;;;;;118.32;45.38;;;5.60;99.90;;;;;;5042760;28;20124;-70
2022/12/01 04:57:05;;;;;;;126.28;46.47;;;5.60;99.90;;;;;;5041802;28;20685;-70
2022/12/01 04:59:31;;;;;;;122.85;45.03;;;5.60;99.90;;;;;;5040477;28;20481;-70
2022/12/01 05:01:56;;;;;;;120.60;43.45;;;5.50;99.90;;;;;;5026204;28;20523;-71
2022/12/01 05:04:22;;;;;;;116.32;44.35;;;5.60;99.90;;;;;;5012645;28;20075;-70
2022/12/01 05:06:48;;;;;;;120.95;43.30;;;5.50;99.90;;;;;;5040065;28;20412;-71
2022/12/01 05:09:14;;;;;;;106.75;40.53;;;5.50;99.90;;;;;;5016863;28;20049;-70
2022/12/01 05:11:40;;;;;;;113.38;41.40;;;5.60;99.90;;;;;;5040165;28;20055;-70
2022/12/01 05:14:06;;;;;;;113.03;41.60;;;5.50;99.90;;;;;;5016994;28;20045;-71
2022/12/01 05:16:32;;;;;;;107.63;40.90;;;5.50;99.90;;;;;;5042397;28;20512;-70
2022/12/01 05:21:46;;;;;;;111.97;42.53;;;5.60;99.90;;;;;;5039805;28;20053;-70
2022/12/01 05:24:13;;;;;;;117.43;43.67;;;5.60;99.90;;;;;;5018833;28;20079;-70
2022/12/01 05:26:39;;;;;;;116.20;41.78;;;5.50;99.90;;;;;;5020421;28;20044;-70
2022/12/01 05:29:06;;;;;;;122.65;44.78;;;5.60;99.90;;;;;;5041939;28;20130;-70
2022/12/01 05:31:31;;;;;;;113.82;43.00;;;5.50;99.90;;;;;;5036172;28;20051;-70
2022/12/01 05:33:57;;;;;;;115.50;42.88;;;5.60;99.90;;;;;;5016192;28;20049;-71
2022/12/01 05:36:23;;;;;;;110.05;44.05;;;5.60;99.90;;;;;;5039946;28;20045;-70
2022/12/01 05:38:49;;;;;;;117.38;43.72;;;5.60;99.90;;;;;;5041712;28;20307;-70
2022/12/01 05:41:14;;;;;;;111.70;43.60;;;5.60;99.90;;;;;;5041817;28;20143;-70
2022/12/01 05:43:40;;;;;;;118.53;43.85;;;5.60;99.90;;;;;;5040856;28;20047;-70
2022/12/01 05:46:06;;;;;;;115.78;43.85;;;5.50;99.90;;;;;;5021150;28;20049;-71
2022/12/01 05:48:31;;;;;;;119.20;45.17;;;5.60;99.90;;;;;;5044060;28;20488;-71
2022/12/01 05:50:57;;;;;;;134.00;44.63;;;5.60;99.90;;;;;;5041242;28;20044;-70
2022/12/01 05:53:23;;;;;;;117.32;43.10;;;5.50;99.90;;;;;;5041917;28;20049;-70
2022/12/01 05:55:53;;;;;;;120.85;45.22;;;5.50;99.90;;;;;;5036160;28;20087;-71
2022/12/01 05:58:19;;;;;;;117.50;44.00;;;5.50;99.90;;;;;;5036092;28;20056;-71
2022/12/01 06:00:44;;;;;;;119.97;44.65;;;5.60;99.90;;;;;;5035716;28;20053;-70
2022/12/01 06:03:10;;;;;;;106.22;39.33;;;5.50;99.90;;;;;;5017149;28;20463;-71
2022/12/01 06:05:36;;;;;;;118.53;41.83;;;5.50;99.90;;;;;;5014429;28;20488;-70
2022/12/01 06:08:01;;;;;;;112.63;41.60;;;5.50;99.90;;;;;;5037363;28;20120;-70
2022/12/01 06:10:27;;;;;;;115.20;43.05;;;5.60;99.90;;;;;;5039642;28;20171;-70
2022/12/01 06:12:52;;;;;;;110.55;40.40;;;5.60;99.90;;;;;;5017439;28;20048;-71
2022/12/01 06:15:18;;;;;;;103.60;39.83;;;5.50;99.90;;;;;;5042596;28;20123;-70
2022/12/01 06:17:44;;;;;;;103.63;39.60;;;5.50;99.90;;;;;;5025744;28;20052;-71
2022/12/01 06:20:11;;;;;;;98.32;38.42;;;5.50;99.90;;;;;;5018243;28;20047;-70
2022/12/01 06:22:36;;;;;;;107.22;38.58;;;5.60;99.90;;;;;;5023421;28;20044;-72
2022/12/01 06:25:03;;;;;;;99.60;37.70;;;5.50;99.90;;;;;;5014677;28;20461;-71
2022/12/01 06:27:28;;;;;;;102.60;37.40;;;5.50;99.90;;;;;;5040023;28;20174;-70
2022/12/01 06:29:54;;;;;;;112.13;41.75;;;5.60;99.90;;;;;;5045146;28;20168;-70
2022/12/01 06:32:19;;;;;;;110.35;42.58;;;5.60;99.90;;;;;;5042966;28;20068;-73
2022/12/01 06:34:45;;;;;;;103.80;43.85;;;5.60;99.90;;;;;;5045250;28;20082;-75
2022/12/01 06:37:14;;;;;;;110.07;43.28;;;5.50;99.90;;;;;;5040580;28;20053;-76
2022/12/01 06:39:40;;;;;;;110.85;43.67;;;5.50;99.90;;;;;;5023547;28;20054;-76
2022/12/01 06:42:05;;;;;;;113.25;45.47;;;5.50;99.90;;;;;;5038782;28;20292;-74
2022/12/01 06:44:34;;;;;;;101.82;42.58;;;5.50;99.90;;;;;;5039929;28;20119;-73
2022/12/01 06:47:00;;;;;;;94.00;40.80;;;5.50;99.90;;;;;;5036817;28;20049;-80
2022/12/01 06:49:25;;;;;;;102.05;40.15;;;5.50;99.90;;;;;;5042824;28;20516;-75
2022/12/01 06:51:51;;;;;;;93.60;39.70;;;5.60;99.90;;;;;;5038624;28;20055;-75
2022/12/01 06:54:17;;;;;;;93.70;39.05;;;5.60;99.90;;;;;;5035296;28;20073;-81
2022/12/01 06:56:44;;;;;;;91.85;37.83;;;5.50;99.90;;;;;;5036296;28;20540;-77
2022/12/01 06:59:10;;;;;;;83.97;36.58;;;5.40;99.90;;;;;;5024738;28;20041;-73
2022/12/01 07:01:35;;;;;;;92.47;37.92;;;5.50;99.90;;;;;;5027056;28;20043;-73
2022/12/01 07:04:01;;;;;;;73.90;33.40;;;5.50;99.90;;;;;;5045436;28;20045;-70
2022/12/01 07:06:29;;;;;;;69.88;29.85;;;5.30;99.90;;;;;;5043746;28;20037;-67
2022/12/01 07:08:55;;;;;;;70.07;30.70;;;5.30;99.90;;;;;;5041544;28;20071;-69
2022/12/01 07:11:20;;;;;;;68.55;29.00;;;5.10;99.90;;;;;;5041975;28;20055;-67
2022/12/01 07:13:48;;;;;;;75.90;31.42;;;5.00;99.90;;;;;;5039311;28;20037;-68
2022/12/01 07:16:14;;;;;;;83.25;33.03;;;4.90;99.90;;;;;;5039146;28;20080;-68
2022/12/01 07:18:40;;;;;;;89.85;34.85;;;4.70;99.90;;;;;;5042640;28;20069;-69
2022/12/01 07:21:08;;;;;;;83.32;35.95;;;4.80;99.90;;;;;;5020775;28;20033;-68
2022/12/01 07:23:34;;;;;;;78.07;34.15;;;4.70;99.90;;;;;;5042244;28;20044;-68
2022/12/01 07:26:02;;;;;;;79.35;32.30;;;4.50;99.90;;;;;;5039094;28;20040;-67
2022/12/01 07:28:28;;;;;;;87.28;33.92;;;4.60;99.90;;;;;;5028572;28;20049;-68
2022/12/01 07:30:59;;;;;;;84.25;35.75;;;4.50;99.90;;;;;;5024628;28;20102;-68
2022/12/01 07:33:24;;;;;;;91.93;35.20;;;4.50;99.90;;;;;;5041450;28;20126;-69
2022/12/01 07:35:52;;;;;;;85.57;34.67;;;4.40;99.90;;;;;;5045761;28;20545;-71
2022/12/01 07:38:18;;;;;;;78.88;33.63;;;4.40;99.90;;;;;;5040444;28;20068;-71
2022/12/01 07:40:43;;;;;;;88.07;35.22;;;4.40;99.90;;;;;;5027570;28;20049;-71
2022/12/01 07:43:09;;;;;;;81.18;32.65;;;4.40;99.90;;;;;;5045044;28;20056;-72
2022/12/01 07:45:35;;;;;;;81.03;33.60;;;4.40;99.90;;;;;;5046453;28;20041;-71
2022/12/01 07:48:00;;;;;;;80.00;32.17;;;4.40;99.90;;;;;;5046792;28;20053;-71
2022/12/01 07:50:26;;;;;;;77.28;34.03;;;4.50;99.90;;;;;;5046830;28;20041;-72
2022/12/01 07:52:51;;;;;;;82.90;35.13;;;4.40;99.90;;;;;;5048237;28;20392;-72
2022/12/01 07:55:17;;;;;;;91.03;34.45;;;4.40;99.90;;;;;;5048694;28;20044;-71
2022/12/01 07:57:43;;;;;;;84.93;34.15;;;4.50;99.90;;;;;;5046646;28;20051;-72
2022/12/01 08:00:10;;;;;;;84.25;34.92;;;4.40;99.90;;;;;;5049669;28;20122;-71
2022/12/01 08:02:35;;;;;;;82.55;34.30;;;4.40;99.90;;;;;;5048993;28;20045;-71
2022/12/01 08:05:01;;;;;;;87.22;35.15;;;4.50;99.90;;;;;;5026989;28;20076;-71
2022/12/01 08:07:26;;;;;;;86.85;36.13;;;4.60;99.90;;;;;;5048708;28;20068;-71
2022/12/01 08:09:52;;;;;;;84.88;34.67;;;4.50;99.90;;;;;;5046383;28;20040;-71
2022/12/01 08:12:18;;;;;;;85.03;34.08;;;4.60;99.90;;;;;;5043624;28;20138;-72
2022/12/01 08:14:45;;;;;;;76.85;33.00;;;4.80;99.90;;;;;;5049956;28;20044;-71
2022/12/01 08:17:10;;;;;;;80.55;32.55;;;4.80;99.90;;;;;;5048895;28;20044;-71
2022/12/01 08:19:36;;;;;;;69.57;31.73;;;4.70;99.90;;;;;;5049502;28;20090;-71
2022/12/01 08:22:02;;;;;;;75.10;31.40;;;4.70;99.90;;;;;;5045923;28;20205;-72
2022/12/01 08:24:27;;;;;;;76.25;33.22;;;4.60;99.90;;;;;;5048072;28;20057;-72
2022/12/01 08:26:53;;;;;;;81.75;33.85;;;4.70;99.90;;;;;;5045631;28;20048;-71
2022/12/01 08:29:18;;;;;;;82.15;34.15;;;4.80;99.90;;;;;;5046480;28;20052;-71
2022/12/01 08:31:44;;;;;;;77.70;32.38;;;4.70;99.90;;;;;;5048348;28;20056;-71
2022/12/01 08:34:10;;;;;;;77.13;30.73;;;4.60;99.90;;;;;;5045657;28;20065;-72
2022/12/01 08:36:36;;;;;;;67.40;29.35;;;4.60;99.90;;;;;;5047949;28;20480;-71
2022/12/01 08:39:02;;;;;;;66.20;29.88;;;4.60;99.90;;;;;;5047066;28;20068;-71
2022/12/01 08:41:28;;;;;;;73.65;30.85;;;4.60;99.90;;;;;;5047149;28;20053;-71
2022/12/01 08:43:54;;;;;;;72.43;31.42;;;4.70;99.90;;;;;;5024663;28;20397;-71
2022/12/01 08:46:20;;;;;;;76.63;31.40;;;4.60;99.90;;;;;;5045448;28;20087;-71
2022/12/01 08:48:45;;;;;;;78.25;32.28;;;4.60;99.90;;;;;;5026834;28;20515;-71
2022/12/01 08:51:15;;;;;;;73.43;31.08;;;4.60;99.90;;;;;;5048633;28;20060;-72
2022/12/01 08:53:43;;;;;;;69.25;29.67;;;4.70;99.90;;;;;;5046523;28;20073;-71
2022/12/01 08:56:17;;;;;;;60.55;29.85;;;4.70;99.90;;;;;;5046750;28;20106;-71
2022/12/01 08:58:43;;;;;;;74.72;30.80;;;4.60;99.90;;;;;;5049100;28;20048;-71
2022/12/01 09:01:11;;;;;;;72.72;30.58;;;4.60;99.90;;;;;;5028518;28;20049;-72
2022/12/01 09:03:38;;;;;;;73.60;31.05;;;4.60;99.90;;;;;;5027730;28;20396;-72
2022/12/01 09:06:21;;;;;;;73.57;29.25;;;4.60;99.90;;;;;;5034714;28;20049;-72
2022/12/01 09:08:47;;;;;;;61.83;27.27;;;4.60;99.90;;;;;;5046378;28;20049;-72
2022/12/01 09:11:17;;;;;;;61.90;28.58;;;4.60;99.90;;;;;;5052647;28;20070;-72
2022/12/01 09:13:44;;;;;;;65.68;27.13;;;4.60;99.90;;;;;;5035153;28;20049;-72
2022/12/01 09:16:15;;;;;;;66.95;29.65;;;4.60;99.90;;;;;;5041746;28;20622;-72
2022/12/01 09:18:42;;;;;;;62.28;25.92;;;4.60;99.90;;;;;;5059589;28;20052;-72
2022/12/01 09:21:14;;;;;;;59.60;27.08;;;4.60;99.90;;;;;;5025219;28;20059;-73
2022/12/01 09:23:40;;;;;;;62.97;27.50;;;4.70;99.90;;;;;;5023684;28;20411;-73
2022/12/01 09:26:07;;;;;;;57.95;28.10;;;4.60;99.90;;;;;;5047015;28;20476;-72
2022/12/01 09:28:32;;;;;;;58.38;25.52;;;4.80;99.90;;;;;;5043281;28;20044;-71
2022/12/01 09:31:06;;;;;;;61.15;26.58;;;4.80;99.90;;;;;;5045745;28;20037;-71
2022/12/01 09:33:32;;;;;;;52.85;25.33;;;4.70;99.90;;;;;;5040401;28;20045;-71
2022/12/01 09:35:58;;;;;;;55.63;25.08;;;4.80;99.90;;;;;;5047042;28;20052;-71
2022/12/01 09:38:24;;;;;;;48.78;23.42;;;4.80;99.90;;;;;;5044827;28;20156;-71
2022/12/01 09:40:51;;;;;;;49.40;24.70;;;4.90;99.90;;;;;;5043095;28;20041;-72
2022/12/01 09:43:21;;;;;;;50.75;22.92;;;4.90;99.90;;;;;;5046186;28;20466;-71
2022/12/01 09:45:51;;;;;;;47.25;21.83;;;4.90;99.90;;;;;;5045331;28;20504;-71
2022/12/01 09:48:33;;;;;;;42.70;20.77;;;4.90;99.90;;;;;;5046532;28;20060;-72
2022/12/01 09:50:59;;;;;;;32.13;16.67;;;5.10;99.90;;;;;;5044216;28;20140;-72
2022/12/01 09:53:27;;;;;;;29.58;15.63;;;5.20;99.90;;;;;;5042735;28;20103;-72
2022/12/01 09:55:54;;;;;;;24.52;14.45;;;5.20;99.90;;;;;;5040118;28;20196;-72
2022/12/01 09:58:25;;;;;;;27.00;14.82;;;5.20;99.90;;;;;;5043121;28;20048;-72
2022/12/01 10:00:52;;;;;;;25.80;13.52;;;5.30;99.90;;;;;;5045790;28;20040;-72
2022/12/01 10:03:45;;;;;;;20.67;13.38;;;5.40;99.90;;;;;;5043064;28;20479;-72
2022/12/01 10:06:44;;;;;;;23.40;13.27;;;5.50;99.90;;;;;;5022523;28;20045;-72
2022/12/01 10:09:16;;;;;;;27.58;13.98;;;5.70;99.90;;;;;;5043805;28;20495;-71
2022/12/01 10:11:44;;;;;;;24.58;13.90;;;5.70;99.90;;;;;;5042720;28;20083;-72
2022/12/01 10:14:17;;;;;;;20.38;12.45;;;5.70;99.90;;;;;;5041734;28;20044;-72
2022/12/01 10:17:17;;;;;;;23.33;13.20;;;5.80;99.90;;;;;;5043690;28;20064;-72
2022/12/01 10:19:51;;;;;;;21.05;12.25;;;5.80;99.90;;;;;;5041948;28;20148;-71
2022/12/01 10:22:50;;;;;;;26.92;13.38;;;5.80;99.90;;;;;;5042659;28;20075;-72
2022/12/01 10:25:25;;;;;;;22.45;12.93;;;5.90;99.90;;;;;;5044096;28;20430;-71
2022/12/01 10:28:43;;;;;;;22.05;12.27;;;5.90;99.90;;;;;;5041115;28;20395;-71
2022/12/01 10:31:25;;;;;;;20.73;12.15;;;6.00;99.90;;;;;;5019635;28;20045;-71
2022/12/01 10:33:53;;;;;;;21.10;12.40;;;5.90;99.90;;;;;;5045698;28;20144;-72
2022/12/01 10:36:20;;;;;;;20.85;12.75;;;5.90;99.90;;;;;;5046937;28;20064;-72
2022/12/01 10:38:45;;;;;;;22.85;13.27;;;6.00;99.90;;;;;;5041964;28;20051;-71
2022/12/01 10:41:13;;;;;;;21.95;12.50;;;6.10;99.90;;;;;;5026452;28;20060;-71
2022/12/01 10:43:47;;;;;;;20.17;12.93;;;6.00;99.90;;;;;;5046124;28;20039;-72
2022/12/01 10:46:19;;;;;;;22.58;13.55;;;6.20;99.90;;;;;;5045337;28;20554;-72
2022/12/01 10:48:54;;;;;;;22.80;13.48;;;6.20;99.90;;;;;;5046208;28;20076;-70
2022/12/01 10:51:21;;;;;;;26.63;13.50;;;6.20;99.90;;;;;;5026623;28;20528;-71
2022/12/01 10:53:47;;;;;;;24.08;13.27;;;6.30;99.90;;;;;;5046087;28;20037;-70
2022/12/01 10:56:17;;;;;;;22.45;12.05;;;6.20;99.90;;;;;;5045054;28;20083;-72
2022/12/01 10:58:52;;;;;;;23.70;13.00;;;6.30;99.90;;;;;;5045068;28;20065;-72
2022/12/01 11:01:28;;;;;;;26.92;12.75;;;6.40;99.90;;;;;;5044387;28;20198;-77
2022/12/01 11:04:20;;;;;;;21.23;12.48;;;6.50;99.90;;;;;;5023004;28;20128;-72
2022/12/01 11:06:50;;;;;;;22.83;12.50;;;6.60;99.90;;;;;;5039485;28;20044;-71
2022/12/01 11:09:20;;;;;;;22.40;13.35;;;6.60;99.90;;;;;;5040784;28;20037;-71
2022/12/01 11:11:53;;;;;;;22.88;12.48;;;6.60;99.90;;;;;;5039694;28;20037;-72
2022/12/01 11:14:22;;;;;;;19.90;12.10;;;6.70;99.90;;;;;;5043121;28;20049;-72
2022/12/01 11:16:51;;;;;;;21.77;11.75;;;6.80;99.90;;;;;;5044974;28;20383;-72
2022/12/01 11:19:32;;;;;;;23.30;12.50;;;6.80;99.90;;;;;;5049817;28;20049;-71
2022/12/01 11:22:00;;;;;;;23.73;11.90;;;6.90;99.90;;;;;;5042777;28;20388;-71
2022/12/01 11:24:42;;;;;;;21.55;11.50;;;7.00;99.90;;;;;;5047539;28;20118;-71
2022/12/01 11:27:17;;;;;;;20.20;11.13;;;7.00;99.90;;;;;;5044877;28;20056;-71
2022/12/01 11:29:46;;;;;;;20.27;11.18;;;7.10;99.90;;;;;;5044914;28;20053;-72
2022/12/01 11:32:20;;;;;;;24.25;12.80;;;7.20;99.90;;;;;;5026186;28;20045;-72
2022/12/01 11:34:59;;;;;;;19.52;11.23;;;7.30;99.90;;;;;;5024569;28;20151;-72
2022/12/01 11:37:36;;;;;;;19.23;11.85;;;7.30;99.90;;;;;;5044101;28;20152;-72
2022/12/01 11:40:19;;;;;;;19.08;11.20;;;7.40;99.90;;;;;;5049521;28;20049;-71
2022/12/01 11:42:58;;;;;;;18.50;11.18;;;7.50;99.90;;;;;;5044664;28;20048;-72
2022/12/01 11:45:33;;;;;;;18.98;9.88;;;7.50;99.90;;;;;;5046206;28;20450;-72
2022/12/01 11:48:17;;;;;;;15.23;9.50;;;7.60;99.90;;;;;;5045220;28;20041;-72
2022/12/01 11:50:58;;;;;;;17.02;10.23;;;7.60;99.90;;;;;;5030285;28;20049;-72
2022/12/01 11:53:30;;;;;;;16.73;9.65;;;7.50;99.90;;;;;;5029412;28;20044;-72
2022/12/01 11:56:22;;;;;;;18.67;10.27;;;7.50;99.90;;;;;;5030268;28;20045;-73
2022/12/01 11:59:02;;;;;;;18.85;11.10;;;7.40;99.90;;;;;;5040716;28;20037;-72
2022/12/01 12:01:45;;;;;;;17.50;10.95;;;7.30;99.90;;;;;;5046794;28;20033;-72
2022/12/01 12:04:38;;;;;;;17.50;10.85;;;7.20;99.90;;;;;;5047528;28;20037;-72
2022/12/01 12:07:34;;;;;;;18.08;11.15;;;7.20;99.90;;;;;;5047846;28;20476;-72
2022/12/01 12:10:13;;;;;;;16.38;9.77;;;7.10;99.90;;;;;;5049034;28;20203;-72
2022/12/01 12:12:53;;;;;;;15.60;9.60;;;7.10;99.90;;;;;;5044281;28;20381;-72
2022/12/01 12:15:31;;;;;;;18.67;10.93;;;7.10;99.90;;;;;;5027129;28;20084;-71
2022/12/01 12:18:21;;;;;;;20.42;11.95;;;7.20;99.90;;;;;;5048499;28;20111;-72
2022/12/01 12:21:02;;;;;;;18.58;10.95;;;7.20;99.90;;;;;;5025970;28;20119;-73
2022/12/01 12:23:34;;;;;;;22.23;12.57;;;7.30;99.90;;;;;;5019396;28;20053;-72
2022/12/01 12:26:34;;;;;;;21.02;11.35;;;7.30;99.90;;;;;;5046534;28;20041;-73
2022/12/01 12:29:18;;;;;;;17.65;10.50;;;7.30;99.90;;;;;;5047177;28;20048;-73
2022/12/01 12:32:12;;;;;;;20.23;10.27;;;7.20;99.90;;;;;;5023148;28;20048;-73
2022/12/01 12:34:56;;;;;;;16.75;9.50;;;7.20;99.90;;;;;;5047875;28;20056;-73
2022/12/01 12:37:37;;;;;;;13.43;8.23;;;7.20;99.90;;;;;;5025155;28;20528;-73
2022/12/01 12:40:24;;;;;;;12.88;7.50;;;7.20;99.90;;;;;;5046575;28;20500;-72
2022/12/01 12:43:11;;;;;;;13.23;8.05;;;7.10;99.90;;;;;;5043208;28;20142;-70
2022/12/01 12:45:37;;;;;;;12.40;7.60;;;7.20;99.90;;;;;;5024931;28;20037;-71
2022/12/01 12:48:21;;;;;;;15.55;8.45;;;7.10;99.90;;;;;;5045368;28;20057;-71
2022/12/01 12:51:12;;;;;;;14.23;8.48;;;7.20;99.90;;;;;;5048174;28;20041;-71
2022/12/01 12:54:11;;;;;;;14.82;8.77;;;7.20;99.90;;;;;;5026219;28;20049;-72
2022/12/01 12:56:39;;;;;;;14.45;9.10;;;7.20;99.90;;;;;;5043278;28;20508;-71
2022/12/01 12:59:18;;;;;;;15.02;9.07;;;7.20;99.90;;;;;;5013583;28;20106;-71
2022/12/01 13:02:03;;;;;;;16.35;10.13;;;7.20;99.90;;;;;;5047162;28;20511;-72